Time;durP1;ratioP1;P1;durP2;ratioP2;P2;SDS_P1;SDS_P2;PMS_P1;PMS_P2;Temp;Humidity;BMP_temperature;BMP_pressure;BME280_temperature;BME280_humidity;BME280_pressure;Samples;Min_cycle;Max_cycle;Signal;HPM_P1;HPM_P2
2022/04/25 00:00:04;;;;;;;5.13;4.50;;;;;;;10.07;30.51;99704.13;10416134;28;20209;-88
2022/04/25 00:05:13;;;;;;;7.33;4.57;;;;;;;9.10;32.08;99712.09;10442655;28;20200;-90
2022/04/25 00:10:15;;;;;;;4.30;3.77;;;;;;;9.85;30.65;99713.69;10433295;28;20216;-87
2022/04/25 00:15:17;;;;;;;2.40;2.20;;;;;;;9.36;30.37;99708.34;10466691;28;20605;-88
2022/04/25 00:20:20;;;;;;;3.40;2.40;;;;;;;9.05;30.53;99713.25;10418785;28;20220;-89
2022/04/25 00:25:22;;;;;;;3.37;2.97;;;;;;;8.40;33.51;99722.09;10425770;28;20230;-90
2022/04/25 00:30:24;;;;;;;4.20;3.53;;;;;;;9.33;32.48;99727.00;10457855;28;20242;-88
2022/04/25 00:35:27;;;;;;;10.17;4.00;;;;;;;8.04;36.20;99725.59;10434987;28;20285;-87
2022/04/25 00:40:29;;;;;;;4.90;3.93;;;;;;;8.14;36.48;99724.94;10438833;28;20196;-90
2022/04/25 00:45:35;;;;;;;6.30;4.53;;;;;;;8.13;36.25;99724.13;10410835;28;20235;-88
2022/04/25 00:50:39;;;;;;;4.47;4.07;;;;;;;8.03;37.01;99729.63;10472430;28;20212;-88
2022/04/25 00:55:41;;;;;;;5.40;4.07;;;;;;;7.99;36.86;99726.72;10438092;28;20208;-88
2022/04/25 01:00:44;;;;;;;6.27;4.60;;;;;;;8.19;37.96;99724.63;10438792;28;20674;-90
2022/04/25 01:05:46;;;;;;;6.43;4.37;;;;;;;8.69;37.09;99734.72;10419751;28;20203;-90
2022/04/25 01:10:49;;;;;;;4.97;3.93;;;;;;;8.54;37.75;99746.25;10449984;28;20956;-89
2022/04/25 01:15:51;;;;;;;7.73;4.60;;;;;;;8.47;37.87;99753.47;10423491;28;20247;-89
2022/04/25 01:20:56;;;;;;;7.00;4.90;;;;;;;8.69;37.28;99748.94;10415814;28;20199;-90
2022/04/25 01:31:20;;;;;;;7.17;4.70;;;;;;;8.42;37.96;99756.63;10438048;28;20223;-90
2022/04/25 01:36:23;;;;;;;10.50;5.27;;;;;;;8.81;38.14;99750.69;10455548;28;20219;-90
2022/04/25 01:41:25;;;;;;;10.13;5.63;;;;;;;8.93;37.42;99753.31;10438232;28;20204;-90
2022/04/25 01:46:28;;;;;;;6.93;5.77;;;;;;;8.21;39.08;99749.81;10445851;28;20200;-89
2022/04/25 01:51:31;;;;;;;6.50;5.80;;;;;;;8.97;37.89;99741.97;10438592;28;20219;-90
2022/04/25 01:56:34;;;;;;;6.40;5.70;;;;;;;8.55;37.98;99736.53;10443353;28;20212;-89
2022/04/25 02:01:37;;;;;;;5.50;5.00;;;;;;;8.56;38.51;99726.81;10441019;28;20265;-89
2022/04/25 02:06:39;;;;;;;7.30;5.10;;;;;;;8.57;38.33;99723.59;10444426;28;20216;-88
2022/04/25 02:11:42;;;;;;;5.60;4.93;;;;;;;8.36;38.29;99723.28;10460914;28;20215;-89
2022/04/25 02:16:45;;;;;;;7.47;5.77;;;;;;;8.76;38.03;99712.06;10461044;28;20220;-88
2022/04/25 02:21:48;;;;;;;8.33;6.03;;;;;;;8.57;38.66;99705.72;10460793;28;20192;-90
2022/04/25 02:26:50;;;;;;;8.07;6.40;;;;;;;8.94;39.05;99705.81;10460698;28;20204;-87
2022/04/25 02:31:53;;;;;;;7.87;5.90;;;;;;;8.26;39.05;99696.34;10434801;28;20575;-89
2022/04/25 02:36:56;;;;;;;10.73;8.53;;;;;;;8.65;39.26;99693.25;10427198;28;20502;-89
2022/04/25 02:41:58;;;;;;;10.57;9.43;;;;;;;9.10;37.94;99695.84;10458621;28;20203;-88
2022/04/25 02:47:00;;;;;;;10.83;9.70;;;;;;;7.80;41.00;99696.44;10459423;28;20270;-88
2022/04/25 02:52:03;;;;;;;11.47;9.77;;;;;;;8.78;39.21;99691.81;10441409;28;20223;-89
2022/04/25 02:57:05;;;;;;;9.57;8.57;;;;;;;9.17;38.49;99681.72;10458743;28;20204;-88
2022/04/25 03:02:08;;;;;;;12.23;8.93;;;;;;;8.49;39.76;99682.91;10413428;28;20208;-88
2022/04/25 03:07:10;;;;;;;8.40;7.60;;;;;;;8.09;40.08;99668.53;10426492;28;20344;-89
2022/04/25 03:12:13;;;;;;;8.50;7.33;;;;;;;8.06;40.65;99669.28;10450560;28;20212;-88
2022/04/25 03:17:15;;;;;;;9.20;7.80;;;;;;;8.87;39.07;99666.75;10452009;28;20653;-90
2022/04/25 03:22:17;;;;;;;7.67;5.70;;;;;;;8.29;39.04;99660.69;10451377;28;20204;-87
2022/04/25 03:27:20;;;;;;;7.20;6.50;;;;;;;9.37;37.29;99655.94;10450640;28;20261;-87
2022/04/25 03:32:22;;;;;;;6.60;5.53;;;;;;;9.05;37.75;99650.72;10425334;28;20227;-87
2022/04/25 03:37:26;;;;;;;5.63;4.97;;;;;;;8.84;38.39;99664.69;10434199;28;20258;-89
2022/04/25 03:42:28;;;;;;;7.37;4.73;;;;;;;9.09;37.76;99654.41;10429141;28;20347;-87
2022/04/25 03:47:32;;;;;;;6.27;5.43;;;;;;;8.87;38.18;99652.56;10443653;28;20208;-88
2022/04/25 03:52:35;;;;;;;6.23;5.63;;;;;;;9.17;37.12;99656.13;10431735;28;20293;-89
2022/04/25 03:57:37;;;;;;;6.70;5.43;;;;;;;8.05;39.67;99661.97;10419097;28;20212;-91
2022/04/25 04:02:39;;;;;;;7.70;7.00;;;;;;;8.54;38.10;99661.06;10432446;28;20230;-88
2022/04/25 04:07:42;;;;;;;7.77;7.07;;;;;;;8.13;39.05;99669.38;10414229;28;20481;-87
2022/04/25 04:12:46;;;;;;;7.60;6.80;;;;;;;8.81;37.93;99671.13;10422248;28;20583;-88
2022/04/25 04:17:48;;;;;;;9.47;7.83;;;;;;;8.83;37.94;99674.41;10443083;28;20702;-88
2022/04/25 04:22:50;;;;;;;8.33;7.40;;;;;;;9.01;37.96;99686.81;10426291;28;20208;-88
2022/04/25 04:27:53;;;;;;;10.27;7.73;;;;;;;9.03;38.12;99692.91;10453095;28;20249;-89
2022/04/25 04:32:56;;;;;;;8.27;7.43;;;;;;;9.54;36.37;99695.91;10453965;28;20785;-87
2022/04/25 04:38:00;;;;;;;9.90;7.73;;;;;;;9.40;37.32;99701.50;10424773;28;20322;-88
2022/04/25 04:43:03;;;;;;;10.83;9.70;;;;;;;9.39;37.20;99713.25;10421083;28;20203;-89
2022/04/25 04:48:05;;;;;;;12.33;9.07;;;;;;;9.20;37.71;99723.59;10438568;28;20212;-86
2022/04/25 04:53:08;;;;;;;12.47;10.37;;;;;;;9.45;37.83;99728.75;10433683;28;20309;-87
2022/04/25 04:58:10;;;;;;;11.33;10.10;;;;;;;9.30;37.21;99729.81;10420171;28;20212;-86
2022/04/25 05:03:15;;;;;;;11.97;10.30;;;;;;;9.32;37.37;99733.09;10432916;28;20262;-87
2022/04/25 05:08:18;;;;;;;12.43;11.17;;;;;;;8.76;38.90;99748.19;10448781;28;20222;-86
2022/04/25 05:13:21;;;;;;;13.47;12.07;;;;;;;8.70;39.45;99766.78;10425103;28;20207;-86
2022/04/25 05:18:24;;;;;;;12.87;9.80;;;;;;;9.14;37.44;99773.50;10439371;28;20278;-86
2022/04/25 05:23:27;;;;;;;9.47;8.43;;;;;;;9.46;37.11;99775.91;10424428;28;20216;-86
2022/04/25 05:28:29;;;;;;;9.00;8.10;;;;;;;9.48;36.44;99780.00;10436927;28;20282;-87
2022/04/25 05:33:31;;;;;;;6.27;5.67;;;;;;;8.61;37.20;99781.28;10437162;28;20235;-87
2022/04/25 05:38:34;;;;;;;6.77;6.03;;;;;;;8.52;37.02;99794.94;10482005;28;20570;-87
2022/04/25 05:43:39;;;;;;;7.17;6.47;;;;;;;9.30;36.95;99796.03;10495500;28;20240;-87
2022/04/25 05:54:02;;;;;;;7.80;7.07;;;;;;;9.24;36.53;99813.84;10494510;28;20269;-88
2022/04/25 05:59:05;;;;;;;6.23;5.47;;;;;;;9.32;36.45;99812.72;10494508;28;20244;-87
2022/04/25 06:04:07;;;;;;;6.90;5.70;;;;;;;8.45;37.88;99821.19;10477676;28;20195;-87
2022/04/25 06:09:09;;;;;;;7.77;5.90;;;;;;;9.36;36.46;99816.44;10412279;28;20250;-87
2022/04/25 06:14:11;;;;;;;6.37;5.77;;;;;;;9.09;36.36;99827.84;10395702;28;20282;-88
2022/04/25 06:19:13;;;;;;;6.03;5.40;;;;;;;9.06;35.72;99824.94;10378705;28;20244;-88
2022/04/25 06:29:00;;;;;;;4.73;4.30;;;;;;;8.54;34.39;99828.81;10539922;27;20553;-91
2022/04/25 06:38:48;;;;;;;5.43;4.90;;;;;;;8.44;34.77;99843.75;10595576;27;20517;-90
2022/04/25 06:43:50;;;;;;;8.00;5.97;;;;;;;8.28;34.95;99843.16;10578814;28;20574;-91
2022/04/25 06:54:14;;;;;;;7.03;5.53;;;;;;;7.54;36.85;99855.00;10580570;28;20450;-91
2022/04/25 06:59:19;;;;;;;10.03;6.93;;;;;;;7.27;36.36;99859.00;10562405;28;20206;-89
2022/04/25 07:04:21;;;;;;;6.70;6.00;;;;;;;7.19;36.83;99866.56;10578582;28;20508;-89
2022/04/25 07:09:23;;;;;;;9.43;7.63;;;;;;;8.26;35.97;99857.75;10578624;28;20235;-88
2022/04/25 07:14:27;;;;;;;8.37;7.40;;;;;;;7.96;36.01;99865.41;10553240;28;20278;-88
2022/04/25 07:19:30;;;;;;;10.73;7.23;;;;;;;7.21;37.46;99878.38;10483558;28;20212;-90
2022/04/25 07:29:54;;;;;;;10.40;7.77;;;;;;;8.36;35.56;99867.63;10517108;28;20255;-86
2022/04/25 07:34:56;;;;;;;10.33;8.07;;;;;;;7.96;34.69;99883.28;10500221;28;20573;-88
2022/04/25 07:39:59;;;;;;;10.43;7.80;;;;;;;7.63;36.29;99888.88;10533629;28;20518;-86
2022/04/25 07:45:03;;;;;;;7.90;7.10;;;;;;;8.43;35.25;99884.75;10500433;28;20241;-86
2022/04/25 07:50:05;;;;;;;9.60;7.87;;;;;;;7.15;37.14;99908.25;10473068;28;20195;-86
2022/04/25 07:55:08;;;;;;;9.93;8.80;;;;;;;8.28;36.12;99900.03;10471712;28;20287;-87
2022/04/25 08:00:10;;;;;;;9.97;8.27;;;;;;;7.93;36.80;99917.31;10471933;28;20264;-89
2022/04/25 08:05:13;;;;;;;11.80;8.57;;;;;;;8.05;36.61;99912.25;10505327;28;20241;-87
2022/04/25 08:10:15;;;;;;;11.87;9.10;;;;;;;8.04;36.87;99918.31;10472170;28;20191;-90
2022/04/25 08:20:39;;;;;;;10.63;8.67;;;;;;;8.76;35.04;99921.78;10505089;28;20218;-86
2022/04/25 08:25:42;;;;;;;10.77;8.60;;;;;;;8.15;36.40;99925.78;10486882;28;20191;-88
2022/04/25 08:30:44;;;;;;;10.10;8.40;;;;;;;8.43;36.13;99930.28;10461419;28;20199;-87
2022/04/25 08:35:46;;;;;;;11.77;9.43;;;;;;;7.88;37.96;99938.38;10479167;28;20647;-88
2022/04/25 08:40:49;;;;;;;10.80;8.83;;;;;;;8.20;36.59;99936.84;10503213;28;20249;-87
2022/04/25 08:45:53;;;;;;;9.97;8.97;;;;;;;8.04;36.99;99958.09;10483312;28;20187;-90
2022/04/25 08:50:55;;;;;;;12.23;9.20;;;;;;;7.89;36.55;99962.72;10473716;28;20203;-92
2022/04/25 08:56:00;;;;;;;13.93;10.63;;;;;;;8.19;36.75;99965.66;10477846;28;20608;-87
2022/04/25 09:01:02;;;;;;;11.57;9.73;;;;;;;8.70;35.56;99960.31;10484169;28;20225;-91
2022/04/25 09:06:08;;;;;;;12.30;10.33;;;;;;;9.08;35.23;99962.03;10486217;28;20195;-90
2022/04/25 09:21:27;;;;;;;13.43;10.40;;;;;;;8.95;36.46;99996.97;10436160;27;20639;-90
2022/04/25 09:26:31;;;;;;;13.43;10.30;;;;;;;9.56;34.78;99986.41;10324142;28;20300;-87
2022/04/25 09:31:33;;;;;;;12.23;10.20;;;;;;;9.55;34.87;99993.34;10386415;28;20193;-90
2022/04/25 09:36:48;;;;;;;13.10;10.43;;;;;;;9.36;34.91;99983.72;10365583;28;20197;-91
2022/04/25 09:41:51;;;;;;;11.87;9.70;;;;;;;9.63;34.71;99986.50;10351881;28;20501;-88
2022/04/25 09:46:53;;;;;;;13.10;10.50;;;;;;;9.69;35.12;99987.78;10352865;28;20189;-88
2022/04/25 09:52:00;;;;;;;13.23;8.87;;;;;;;9.86;34.39;99992.88;10369718;28;20487;-90
2022/04/25 09:57:03;;;;;;;10.93;9.43;;;;;;;9.88;34.95;99992.47;10383156;28;20221;-86
2022/04/25 10:02:07;;;;;;;10.97;9.00;;;;;;;9.84;34.60;99994.47;10389217;28;20193;-86
2022/04/25 10:07:10;;;;;;;12.20;9.47;;;;;;;10.12;33.53;100007.03;10332190;28;20572;-85
2022/04/25 10:12:13;;;;;;;10.13;9.13;;;;;;;10.62;33.51;99992.38;10347000;28;20279;-87
2022/04/25 10:17:16;;;;;;;9.30;8.30;;;;;;;10.85;31.59;100001.56;10395963;28;20549;-89
2022/04/25 10:22:20;;;;;;;11.27;10.07;;;;;;;10.51;32.73;100000.03;10403062;28;20204;-86
2022/04/25 10:27:27;;;;;;;15.20;12.23;;;;;;;11.34;32.33;100000.22;10395496;28;20243;-86
2022/04/25 10:32:29;;;;;;;12.43;9.17;;;;;;;10.34;33.34;100004.38;10379239;28;20201;-86
2022/04/25 10:37:39;;;;;;;10.87;9.00;;;;;;;10.27;33.78;99998.63;10375780;28;20242;-86
2022/04/25 10:49:09;;;;;;;13.40;10.03;;;;;;;11.47;32.34;99993.81;10390264;28;20263;-88
2022/04/25 10:54:14;;;;;;;11.93;10.70;;;;;;;11.43;32.14;99997.84;10373984;28;20267;-85
2022/04/25 10:59:25;;;;;;;13.00;10.70;;;;;;;10.80;33.47;99999.91;10373175;28;20299;-85
2022/04/25 11:04:27;;;;;;;11.30;9.70;;;;;;;11.62;31.83;99999.56;10373238;28;20626;-86
2022/04/25 11:09:38;;;;;;;10.77;9.70;;;;;;;11.64;31.43;100003.63;10339676;28;20297;-89
2022/04/25 11:15:02;;;;;;;11.55;10.38;;;;;;;11.63;30.84;100001.22;10388296;28;20581;-86
2022/04/25 11:20:06;;;;;;;12.03;10.80;;;;;;;11.67;30.62;100013.44;10388087;28;20253;-85
2022/04/25 11:25:39;;;;;;;11.57;9.65;;;;;;;11.40;33.60;100016.56;10372427;28;20259;-86
2022/04/25 11:30:42;;;;;;;12.53;10.47;;;;;;;11.52;31.90;100019.09;10356631;28;20614;-88
2022/04/25 11:35:44;;;;;;;10.17;9.17;;;;;;;10.36;32.59;100030.44;10387687;28;20315;-87
2022/04/25 11:40:48;;;;;;;13.47;10.90;;;;;;;11.65;32.66;100028.13;10346284;28;20252;-87
2022/04/25 11:45:50;;;;;;;11.87;10.43;;;;;;;11.47;32.32;100033.78;10369134;28;20226;-86
2022/04/25 11:50:53;;;;;;;11.23;9.50;;;;;;;11.35;32.31;100028.38;10368363;28;20244;-85
2022/04/25 11:55:55;;;;;;;12.97;9.77;;;;;;;11.14;33.88;100042.53;10363953;28;20749;-85
2022/04/25 12:00:57;;;;;;;10.47;8.87;;;;;;;10.37;33.47;100037.81;10368016;28;20332;-90
2022/04/25 12:06:12;;;;;;;11.47;9.03;;;;;;;11.18;33.33;100051.94;10355407;28;20202;-88
2022/04/25 12:16:35;;;;;;;10.07;9.07;;;;;;;11.27;32.93;100058.09;10397676;28;20244;-89
2022/04/25 12:21:40;;;;;;;10.50;9.50;;;;;;;11.31;33.72;100053.25;10366483;28;20607;-87
2022/04/25 12:26:43;;;;;;;12.03;9.77;;;;;;;10.82;34.19;100065.97;10367937;28;20283;-87
2022/04/25 12:31:47;;;;;;;8.93;8.00;;;;;;;9.62;36.58;100064.59;10353203;28;20292;-88
2022/04/25 12:36:54;;;;;;;12.97;9.73;;;;;;;10.49;36.49;100063.16;10368095;28;20316;-86
2022/04/25 12:41:58;;;;;;;11.27;9.70;;;;;;;10.35;36.23;100063.84;10371558;28;20248;-88
2022/04/25 12:47:04;;;;;;;14.23;11.57;;;;;;;10.52;37.52;100068.09;10368049;28;20259;-87
2022/04/25 12:52:08;;;;;;;12.63;11.33;;;;;;;10.59;37.47;100062.47;10384758;28;20226;-87
2022/04/25 12:57:20;;;;;;;16.30;11.33;;;;;;;10.81;36.72;100069.19;10360022;28;20201;-89
2022/04/25 13:02:32;;;;;;;14.37;12.40;;;;;;;10.29;38.03;100081.72;10369778;28;20193;-87
2022/04/25 13:07:43;;;;;;;13.67;11.70;;;;;;;10.39;38.13;100073.25;10369073;28;20286;-87
2022/04/25 13:12:47;;;;;;;15.63;14.03;;;;;;;10.22;38.08;100078.78;10381906;28;20229;-88
2022/04/25 13:17:51;;;;;;;14.87;13.17;;;;;;;10.76;36.87;100080.94;10365062;28;20252;-86
2022/04/25 13:22:54;;;;;;;11.83;10.50;;;;;;;10.51;37.06;100083.56;10363850;28;20643;-87
2022/04/25 13:27:56;;;;;;;9.87;8.80;;;;;;;9.80;38.38;100093.31;10365237;28;20696;-88
2022/04/25 13:32:59;;;;;;;10.00;7.83;;;;;;;10.06;38.05;100090.41;10383370;28;20672;-87
2022/04/25 13:38:01;;;;;;;8.00;7.30;;;;;;;9.50;39.08;100097.00;10365647;28;20315;-87
2022/04/25 13:43:04;;;;;;;15.27;8.93;;;;;;;9.23;40.63;100104.69;10365374;28;20251;-84
2022/04/25 13:48:07;;;;;;;9.03;8.10;;;;;;;9.58;39.25;100095.06;10365008;28;20232;-86
2022/04/25 13:53:12;;;;;;;8.77;7.73;;;;;;;10.14;37.00;100089.28;10343388;28;20278;-86
2022/04/25 13:58:15;;;;;;;10.77;8.87;;;;;;;10.62;38.57;100093.03;10366134;28;20803;-84
2022/04/25 14:03:18;;;;;;;8.73;7.93;;;;;;;10.88;36.72;100091.25;10352893;28;20796;-85
2022/04/25 14:08:21;;;;;;;9.40;8.50;;;;;;;10.92;37.22;100092.09;10376824;28;20194;-87
2022/04/25 14:13:25;;;;;;;9.60;8.57;;;;;;;10.40;37.65;100089.16;10376269;28;20247;-89
2022/04/25 14:18:29;;;;;;;9.60;8.70;;;;;;;11.01;37.30;100086.88;10374886;28;20217;-89
2022/04/25 14:23:31;;;;;;;10.57;9.13;;;;;;;11.72;37.20;100084.50;10375076;28;20275;-90
2022/04/25 14:28:34;;;;;;;10.17;8.33;;;;;;;10.56;36.59;100090.94;10371567;28;20318;-89
2022/04/25 14:33:57;;;;;;;8.67;7.80;;;;;;;11.77;34.72;100093.50;10372984;28;20228;-86
2022/04/25 14:38:59;;;;;;;9.73;8.73;;;;;;;11.93;35.70;100084.59;10366620;28;20245;-89
2022/04/25 14:44:01;;;;;;;10.07;8.93;;;;;;;12.18;35.31;100081.84;10367228;28;20224;-84
2022/04/25 14:49:03;;;;;;;7.40;6.50;;;;;;;11.49;34.01;100082.75;10367948;28;20283;-84
2022/04/25 14:54:21;;;;;;;8.87;6.60;;;;;;;11.04;34.95;100095.47;10368457;28;21361;-84
2022/04/25 14:59:23;;;;;;;5.77;5.27;;;;;;;10.82;34.19;100100.19;10368680;28;20256;-84
2022/04/25 15:04:26;;;;;;;4.13;3.83;;;;;;;11.02;32.19;100092.19;10385871;28;20259;-83
2022/04/25 15:09:29;;;;;;;3.90;3.60;;;;;;;10.16;33.21;100088.91;10372437;28;20283;-84
2022/04/25 15:14:32;;;;;;;4.73;4.23;;;;;;;10.24;35.24;100088.56;10352130;28;20602;-83
2022/04/25 15:19:37;;;;;;;4.50;4.10;;;;;;;11.65;31.46;100081.59;10370350;28;20245;-83
2022/04/25 15:24:40;;;;;;;4.83;4.43;;;;;;;11.62;32.21;100086.09;10370426;28;20229;-84
2022/04/25 15:29:44;;;;;;;4.60;4.20;;;;;;;11.98;30.38;100091.97;10373908;28;20193;-83
2022/04/25 15:34:47;;;;;;;5.73;5.13;;;;;;;11.75;31.82;100095.13;10399909;28;20201;-87
2022/04/25 15:39:49;;;;;;;5.13;4.63;;;;;;;11.35;32.29;100096.94;10379687;28;20275;-90
2022/04/25 15:44:52;;;;;;;4.57;4.17;;;;;;;11.18;31.66;100100.47;10372826;28;20256;-87
2022/04/25 15:49:54;;;;;;;4.87;4.47;;;;;;;11.20;32.37;100092.34;10387415;28;20198;-85
2022/04/25 16:00:26;;;;;;;5.70;5.10;;;;;;;11.00;33.90;100097.47;10369729;28;20267;-89
2022/04/25 16:05:28;;;;;;;5.90;5.37;;;;;;;11.25;33.29;100096.81;10384779;28;20664;-89
2022/04/25 16:10:31;;;;;;;5.07;3.70;;;;;;;11.56;31.37;100092.56;10385513;28;20263;-85
2022/04/25 16:15:33;;;;;;;2.77;2.47;;;;;;;11.31;30.89;100093.22;10368066;28;20546;-83
2022/04/25 16:20:36;;;;;;;4.47;3.80;;;;;;;11.13;33.21;100097.97;10334325;28;20260;-88
2022/04/25 16:25:40;;;;;;;4.83;4.00;;;;;;;10.22;34.55;100098.72;10384717;28;20198;-85
2022/04/25 16:30:42;;;;;;;6.00;5.50;;;;;;;11.01;32.87;100107.66;10384161;28;20224;-85
2022/04/25 16:35:46;;;;;;;9.67;8.30;;;;;;;10.96;34.04;100101.53;10368732;28;20220;-88
2022/04/25 16:40:48;;;;;;;10.70;9.60;;;;;;;11.08;34.46;100115.50;10370530;28;20264;-86
2022/04/25 16:45:50;;;;;;;16.90;10.20;;;;;;;11.44;33.43;100120.25;10368556;28;20279;-86
2022/04/25 16:50:52;;;;;;;14.07;11.40;;;;;;;11.74;33.29;100110.66;10361049;28;20229;-86
2022/04/25 16:55:54;;;;;;;12.87;11.20;;;;;;;11.68;34.11;100109.38;10369761;28;20486;-87
2022/04/25 17:00:56;;;;;;;12.37;10.83;;;;;;;12.02;33.87;100115.66;10386711;28;20276;-87
2022/04/25 17:05:59;;;;;;;12.77;10.63;;;;;;;10.50;35.77;100124.69;10368960;28;20452;-86
2022/04/25 17:11:01;;;;;;;11.93;10.17;;;;;;;10.88;35.37;100129.16;10358993;28;20247;-87
2022/04/25 17:16:04;;;;;;;13.60;10.80;;;;;;;11.73;34.29;100124.09;10367158;28;20512;-89
2022/04/25 17:21:06;;;;;;;13.00;11.00;;;;;;;11.34;34.50;100126.69;10366241;28;20290;-87
2022/04/25 17:26:13;;;;;;;11.47;10.27;;;;;;;10.89;35.43;100133.66;10340499;28;20524;-86
